Time;durP1;ratioP1;P1;durP2;ratioP2;P2;SDS_P1;SDS_P2;PMS_P1;PMS_P2;Temp;Humidity;BMP_temperature;BMP_pressure;BME280_temperature;BME280_humidity;BME280_pressure;Samples;Min_cycle;Max_cycle;Signal;HPM_P1;HPM_P2
2023/01/10 00:01:30;;;;;;;;;3.25;1.25;;;;;8.43;61.82;101397.22;5114511;27;45288;-66
2023/01/10 00:03:56;;;;;;;;;3.33;3.33;;;;;8.46;61.46;101399.09;5092145;27;46577;-66
2023/01/10 00:06:21;;;;;;;;;3.00;1.00;;;;;8.45;61.98;101394.63;5110179;27;45015;-66
2023/01/10 00:08:47;;;;;;;;;1.00;1.00;;;;;8.43;61.54;101396.28;5112512;27;45295;-66
2023/01/10 00:13:56;;;;;;;;;6.50;3.00;;;;;8.32;61.03;101392.22;5106387;27;45977;-65
2023/01/10 00:16:22;;;;;;;;;5.33;3.00;;;;;8.36;61.46;101399.50;5109849;27;46528;-66
2023/01/10 00:18:48;;;;;;;;;5.50;4.50;;;;;8.40;62.00;101406.78;5108471;27;45200;-65
2023/01/10 00:21:15;;;;;;;;;3.25;2.00;;;;;8.30;61.32;101397.47;5108655;27;45122;-65
2023/01/10 00:23:42;;;;;;;;;2.25;2.25;;;;;8.35;61.57;101405.63;5111353;27;45262;-65
2023/01/10 00:26:08;;;;;;;;;1.75;1.75;;;;;8.37;61.79;101406.66;5092638;27;45287;-66
2023/01/10 00:28:34;;;;;;;;;1.25;1.00;;;;;8.41;61.71;101422.81;5113175;27;45378;-65
2023/01/10 00:31:00;;;;;;;;;1.50;1.50;;;;;8.42;61.65;101434.41;5109523;27;45640;-65
2023/01/10 00:33:30;;;;;;;;;4.00;2.00;;;;;8.38;60.90;101430.69;5111706;27;45544;-64
2023/01/10 00:35:56;;;;;;;;;2.00;1.25;;;;;8.43;61.02;101446.88;5104360;27;45236;-65
2023/01/10 00:38:21;;;;;;;;;3.00;1.75;;;;;8.41;60.56;101438.78;5105393;27;45313;-65
2023/01/10 00:40:47;;;;;;;;;3.00;1.00;;;;;8.35;61.17;101429.59;5118918;27;45677;-66
2023/01/10 00:45:56;;;;;;;;;5.00;2.00;;;;;8.40;60.87;101441.41;5110694;27;45044;-65
2023/01/10 00:48:22;;;;;;;;;2.00;1.33;;;;;8.39;61.33;101445.78;5110541;27;45207;-66
2023/01/10 00:50:48;;;;;;;;;3.00;1.00;;;;;8.35;61.17;101450.91;5111437;27;45261;-65
2023/01/10 00:53:14;;;;;;;;;2.00;0.00;;;;;8.35;61.59;101462.47;5111458;27;45482;-66
2023/01/10 00:55:39;;;;;;;;;3.00;1.75;;;;;8.32;61.22;101454.34;5110632;27;44898;-65
2023/01/10 00:58:05;;;;;;;;;6.00;3.00;;;;;8.34;61.37;101457.09;5108145;27;45473;-65
2023/01/10 01:00:31;;;;;;;;;4.33;1.00;;;;;8.28;61.24;101458.63;5102109;27;45115;-65
2023/01/10 01:02:56;;;;;;;;;0.00;0.00;;;;;8.30;61.90;101466.69;5107589;27;45574;-65
2023/01/10 01:05:21;;;;;;;;;4.50;1.75;;;;;8.30;61.59;101461.38;5107806;27;45030;-65
2023/01/10 01:07:48;;;;;;;;;3.00;2.00;;;;;8.28;61.87;101468.34;5124751;27;45202;-65
2023/01/10 01:10:25;;;;;;;;;3.25;2.00;;;;;8.26;62.26;101465.59;5110783;27;45063;-64
2023/01/10 01:12:56;;;;;;;;;2.00;2.00;;;;;8.24;61.79;101472.63;5114222;27;45706;-66
2023/01/10 01:15:22;;;;;;;;;3.00;3.00;;;;;8.24;61.61;101467.28;5090313;27;45015;-65
2023/01/10 01:17:48;;;;;;;;;8.67;2.00;;;;;8.22;62.63;101468.97;5108048;27;45150;-64
2023/01/10 01:20:13;;;;;;;;;3.67;1.00;;;;;8.21;62.10;101472.47;5109552;27;44924;-64
2023/01/10 01:22:40;;;;;;;;;2.33;1.00;;;;;7.99;62.10;101425.31;5109391;27;45205;-64
2023/01/10 01:25:06;;;;;;;;;2.33;1.33;;;;;8.22;61.96;101486.72;5110186;27;45234;-65
2023/01/10 01:27:31;;;;;;;;;6.25;2.25;;;;;8.24;62.46;101485.94;5110553;27;45298;-64
2023/01/10 01:29:57;;;;;;;;;3.25;1.00;;;;;8.24;61.90;101493.00;5117038;27;45061;-64
2023/01/10 01:32:22;;;;;;;;;5.00;2.00;;;;;7.96;62.86;101437.56;5112910;27;45373;-67
2023/01/10 01:34:48;;;;;;;;;1.33;1.00;;;;;8.30;61.85;101506.63;5118511;27;45067;-66
2023/01/10 01:37:18;;;;;;;;;3.00;1.00;;;;;8.32;62.64;101510.25;5108350;27;45137;-65
2023/01/10 01:39:48;;;;;;;;;3.25;1.25;;;;;8.33;62.24;101504.06;5107378;27;44964;-65
2023/01/10 01:42:25;;;;;;;;;5.33;1.00;;;;;8.37;62.13;101513.16;5101947;27;46107;-65
2023/01/10 01:45:12;;;;;;;;;2.33;1.00;;;;;8.36;62.66;101511.31;5111144;27;45449;-65
2023/01/10 01:47:46;;;;;;;;;3.00;3.00;;;;;8.29;62.22;101510.09;5110245;27;45178;-64
2023/01/10 01:50:33;;;;;;;;;2.50;2.50;;;;;8.35;62.67;101515.75;5089770;27;45373;-65
2023/01/10 01:53:01;;;;;;;;;3.00;2.50;;;;;8.38;62.15;101512.28;5114749;27;45161;-65
2023/01/10 01:55:30;;;;;;;;;3.00;2.00;;;;;8.35;61.30;101498.81;5107728;27;45020;-63
2023/01/10 01:57:58;;;;;;;;;4.00;3.00;;;;;8.24;62.75;101474.38;5106685;27;45044;-65
2023/01/10 02:00:24;;;;;;;;;3.67;1.67;;;;;8.43;62.66;101497.47;5101258;27;45958;-66
2023/01/10 02:02:56;;;;;;;;;3.00;1.50;;;;;8.48;61.98;101501.28;5111442;27;45614;-65
2023/01/10 02:05:23;;;;;;;;;4.25;1.75;;;;;8.48;62.43;101494.22;5111606;27;45023;-65
2023/01/10 02:07:53;;;;;;;;;1.25;1.25;;;;;8.49;61.34;101511.97;5110807;27;45223;-65
2023/01/10 02:10:25;;;;;;;;;4.25;2.50;;;;;8.49;61.40;101519.97;5113083;27;44971;-66
2023/01/10 02:12:54;;;;;;;;;2.00;1.00;;;;;8.47;61.40;101520.75;5110598;27;46102;-65
2023/01/10 02:15:19;;;;;;;;;2.00;2.00;;;;;8.46;62.04;101532.25;5113071;27;45097;-64
2023/01/10 02:17:50;;;;;;;;;1.33;1.00;;;;;8.50;61.72;101536.88;5112219;27;45510;-65
2023/01/10 02:20:20;;;;;;;;;1.67;1.33;;;;;8.52;61.92;101544.94;5114385;27;45255;-68
2023/01/10 02:23:13;;;;;;;;;1.67;1.67;;;;;8.54;61.69;101543.28;5111104;27;45474;-66
2023/01/10 02:25:57;;;;;;;;;4.00;1.00;;;;;8.56;61.89;101546.91;5112611;27;45259;-65
2023/01/10 02:28:53;;;;;;;;;4.00;2.50;;;;;8.49;61.67;101551.94;5089492;27;45158;-64
2023/01/10 02:31:21;;;;;;;;;4.00;1.00;;;;;8.46;62.60;101557.16;5093410;27;45330;-65
2023/01/10 02:33:52;;;;;;;;;2.25;1.50;;;;;8.42;62.31;101556.88;5112695;27;45452;-65
2023/01/10 02:36:18;;;;;;;;;2.33;1.00;;;;;8.41;61.93;101555.03;5119009;27;45276;-65
2023/01/10 02:39:03;;;;;;;;;4.00;1.75;;;;;8.36;62.47;101562.81;5112450;27;45365;-65
2023/01/10 02:41:40;;;;;;;;;3.50;2.25;;;;;8.36;62.33;101568.13;5113682;27;45177;-65
2023/01/10 02:44:18;;;;;;;;;2.75;2.00;;;;;8.35;62.09;101565.38;5108876;27;48122;-65
2023/01/10 02:46:47;;;;;;;;;3.00;1.75;;;;;8.00;62.71;101503.38;5107174;27;45386;-65
2023/01/10 02:49:12;;;;;;;;;2.33;0.00;;;;;8.33;62.89;101562.66;5115151;27;45265;-65
2023/01/10 02:51:37;;;;;;;;;0.33;0.33;;;;;8.28;62.61;101565.13;5116327;27;46875;-65
2023/01/10 02:54:08;;;;;;;;;2.00;1.00;;;;;8.27;62.77;101570.38;5106234;27;65900;-64
2023/01/10 02:57:00;;;;;;;;;3.25;0.75;;;;;8.25;62.22;101583.59;5110629;27;45195;-65
2023/01/10 02:59:57;;;;;;;;;3.67;2.33;;;;;8.27;62.32;101591.66;5102757;27;45040;-65
2023/01/10 03:02:57;;;;;;;;;4.00;1.00;;;;;8.26;63.21;101592.47;5119436;27;45443;-65
2023/01/10 03:05:40;;;;;;;;;4.33;1.00;;;;;8.23;63.26;101581.69;5111116;27;45267;-65
2023/01/10 03:08:28;;;;;;;;;5.33;3.00;;;;;8.22;62.75;101571.88;5111649;27;45305;-64
2023/01/10 03:10:58;;;;;;;;;4.00;1.67;;;;;8.25;62.93;101574.69;5107010;27;45202;-65
2023/01/10 03:13:44;;;;;;;;;1.00;1.00;;;;;8.30;62.56;101570.50;5120577;27;45228;-65
2023/01/10 03:16:14;;;;;;;;;0.67;0.67;;;;;8.27;62.81;101576.59;5112264;27;46470;-66
2023/01/10 03:18:53;;;;;;;;;2.00;2.00;;;;;8.29;63.16;101566.91;5112489;27;45147;-65
2023/01/10 03:21:21;;;;;;;;;0.33;0.33;;;;;8.38;63.04;101570.88;5110881;27;45080;-65
2023/01/10 03:23:49;;;;;;;;;2.25;2.00;;;;;8.38;62.37;101574.47;5113304;27;45245;-66
2023/01/10 03:26:16;;;;;;;;;5.00;1.00;;;;;8.41;63.06;101576.34;5110075;27;45233;-66
2023/01/10 03:28:55;;;;;;;;;2.50;0.75;;;;;8.41;62.76;101582.56;5114397;27;45345;-64
2023/01/10 03:31:28;;;;;;;;;6.50;4.75;;;;;8.46;62.43;101585.50;5081380;27;45016;-65
2023/01/10 03:33:54;;;;;;;;;2.00;2.00;;;;;8.45;62.39;101591.69;5092952;27;45221;-65
2023/01/10 03:36:40;;;;;;;;;1.25;1.00;;;;;8.41;62.77;101595.88;5114036;27;45661;-65
2023/01/10 03:39:24;;;;;;;;;2.25;0.00;;;;;8.37;62.78;101587.69;5114353;27;45013;-65
2023/01/10 03:42:01;;;;;;;;;3.25;1.00;;;;;8.42;62.71;101592.41;5107963;27;45183;-66
2023/01/10 03:44:52;;;;;;;;;3.00;1.25;;;;;8.41;63.18;101595.88;5111222;27;45245;-66
2023/01/10 03:47:33;;;;;;;;;4.50;0.75;;;;;8.48;62.53;101594.50;5112552;27;45460;-65
2023/01/10 03:50:05;;;;;;;;;2.50;1.00;;;;;8.49;62.35;101599.88;5108049;27;44910;-65
2023/01/10 03:52:33;;;;;;;;;6.00;2.50;;;;;8.47;62.91;101598.88;5108928;27;45543;-66
2023/01/10 03:54:59;;;;;;;;;3.00;2.00;;;;;8.51;62.08;101599.94;5112482;27;45092;-66
2023/01/10 03:57:25;;;;;;;;;0.50;0.00;;;;;8.51;63.12;101601.72;5115233;27;45136;-65
2023/01/10 03:59:58;;;;;;;;;2.75;1.75;;;;;8.44;62.97;101589.84;5111331;27;45755;-64
2023/01/10 04:02:29;;;;;;;;;2.67;2.00;;;;;8.55;62.22;101619.69;5113783;27;45142;-65
2023/01/10 04:04:55;;;;;;;;;6.00;2.00;;;;;8.52;63.03;101617.75;5114203;27;45246;-65
2023/01/10 04:07:21;;;;;;;;;5.25;2.00;;;;;8.47;61.74;101609.53;5119658;27;45846;-64
2023/01/10 04:09:47;;;;;;;;;5.00;2.00;;;;;8.45;62.40;101602.34;5112811;27;45173;-64
2023/01/10 04:12:12;;;;;;;;;2.50;2.50;;;;;8.51;62.48;101623.91;5113700;27;44978;-65
2023/01/10 04:14:38;;;;;;;;;3.25;3.25;;;;;8.53;63.42;101611.63;5113319;27;44917;-65
2023/01/10 04:17:03;;;;;;;;;5.00;1.00;;;;;8.56;62.03;101606.41;5116984;27;45631;-65
2023/01/10 04:19:29;;;;;;;;;2.67;2.67;;;;;8.58;62.17;101604.75;5112179;27;45230;-67
2023/01/10 04:21:54;;;;;;;;;5.00;0.00;;;;;8.62;62.21;101605.81;5112615;27;45226;-66
2023/01/10 04:24:20;;;;;;;;;4.50;4.00;;;;;8.61;62.48;101604.91;5111805;27;45174;-66
2023/01/10 04:26:46;;;;;;;;;5.00;2.25;;;;;8.60;62.53;101602.16;5112322;27;46138;-65
2023/01/10 04:29:11;;;;;;;;;2.00;2.00;;;;;8.67;62.03;101614.94;5110841;27;45498;-66
2023/01/10 04:31:38;;;;;;;;;2.00;2.00;;;;;8.67;62.90;101618.50;5107125;27;45042;-65
2023/01/10 04:34:04;;;;;;;;;2.00;2.00;;;;;8.63;62.28;101612.97;5118242;27;44918;-66
2023/01/10 04:36:30;;;;;;;;;4.75;2.75;;;;;8.60;62.68;101611.06;5118653;27;46111;-66
2023/01/10 04:38:55;;;;;;;;;5.00;3.25;;;;;8.69;62.96;101623.00;5108550;27;45014;-66
2023/01/10 04:41:21;;;;;;;;;1.00;1.00;;;;;8.66;62.83;101638.00;5119376;27;45015;-65
2023/01/10 04:43:46;;;;;;;;;0.67;0.00;;;;;8.71;62.08;101631.97;5096632;27;45387;-66
2023/01/10 04:46:11;;;;;;;;;2.00;1.00;;;;;8.69;62.88;101637.22;5106162;27;45106;-66
2023/01/10 04:48:36;;;;;;;;;2.75;2.50;;;;;8.72;63.15;101631.13;5113247;27;49121;-64
2023/01/10 04:51:02;;;;;;;;;5.00;3.25;;;;;8.73;62.48;101619.63;5113042;27;45034;-66
2023/01/10 04:53:27;;;;;;;;;3.50;2.25;;;;;8.79;62.31;101634.19;5106140;27;45042;-65
2023/01/10 04:55:53;;;;;;;;;4.50;4.25;;;;;8.78;62.29;101629.69;5110374;27;45665;-66
2023/01/10 04:58:18;;;;;;;;;4.50;2.00;;;;;8.74;62.29;101619.69;5117255;27;45006;-66
2023/01/10 05:00:43;;;;;;;;;2.75;2.75;;;;;8.71;62.91;101629.31;5122033;27;44973;-64
2023/01/10 05:03:09;;;;;;;;;10.75;2.50;;;;;8.76;63.07;101622.44;5093860;27;49849;-66
2023/01/10 05:05:35;;;;;;;;;5.00;3.50;;;;;8.82;62.34;101622.75;5110507;27;61590;-65
2023/01/10 05:08:00;;;;;;;;;4.00;3.00;;;;;8.83;61.76;101627.25;5110328;27;45194;-66
2023/01/10 05:10:27;;;;;;;;;3.75;2.50;;;;;8.82;62.16;101626.31;5094438;27;45141;-65
2023/01/10 05:12:52;;;;;;;;;4.25;4.00;;;;;8.80;62.41;101614.66;5093112;27;45027;-66
2023/01/10 05:15:19;;;;;;;;;3.50;2.00;;;;;8.83;62.04;101625.47;5093349;27;46358;-67
2023/01/10 05:17:45;;;;;;;;;2.25;2.00;;;;;8.84;62.47;101626.38;5114781;27;45026;-66
2023/01/10 05:20:12;;;;;;;;;3.67;2.00;;;;;8.80;62.06;101625.31;5118760;27;44976;-66
2023/01/10 05:22:38;;;;;;;;;2.67;2.00;;;;;8.81;62.67;101611.19;5112793;27;45209;-65
2023/01/10 05:25:04;;;;;;;;;4.75;3.50;;;;;8.84;61.76;101610.41;5116409;27;45819;-64
2023/01/10 05:27:30;;;;;;;;;9.25;4.00;;;;;8.82;61.57;101602.31;5107178;27;45696;-65
2023/01/10 05:29:55;;;;;;;;;3.25;3.00;;;;;8.85;61.82;101612.22;5111413;27;45228;-66
2023/01/10 05:32:20;;;;;;;;;1.25;1.25;;;;;8.81;62.94;101615.56;5109450;27;45305;-65
2023/01/10 05:34:46;;;;;;;;;3.00;3.00;;;;;8.82;61.88;101617.41;5110164;27;45481;-65
2023/01/10 05:37:11;;;;;;;;;2.00;2.00;;;;;8.83;62.30;101616.59;5113955;27;45430;-67
2023/01/10 05:39:40;;;;;;;;;5.75;3.00;;;;;8.83;62.56;101613.91;5110183;27;45600;-66
2023/01/10 05:42:05;;;;;;;;;4.75;2.00;;;;;8.73;62.84;101593.91;5109600;27;45048;-66
2023/01/10 05:44:31;;;;;;;;;5.00;3.00;;;;;8.90;61.97;101623.13;5104858;27;45705;-66
2023/01/10 05:46:56;;;;;;;;;5.00;3.00;;;;;8.93;62.98;101623.25;5108754;27;45064;-66
2023/01/10 05:49:21;;;;;;;;;4.50;2.25;;;;;8.93;62.39;101623.25;5112501;27;44919;-66
2023/01/10 05:51:46;;;;;;;;;4.00;2.50;;;;;8.90;61.84;101615.13;5107093;27;45126;-66
2023/01/10 05:54:12;;;;;;;;;1.75;1.00;;;;;8.96;61.83;101613.66;5109994;27;45311;-65
2023/01/10 05:56:37;;;;;;;;;5.67;3.00;;;;;8.87;62.00;101598.97;5094117;27;45134;-64
2023/01/10 05:59:03;;;;;;;;;4.50;2.00;;;;;8.95;62.89;101603.81;5109511;27;45138;-66
2023/01/10 06:01:28;;;;;;;;;6.00;4.25;;;;;8.82;62.16;101591.66;5110116;27;44996;-65
2023/01/10 06:03:53;;;;;;;;;6.50;2.50;;;;;8.87;62.74;101610.53;5108124;27;45970;-66
2023/01/10 06:06:19;;;;;;;;;8.50;3.00;;;;;8.87;62.72;101620.28;5104166;27;45243;-66
2023/01/10 06:08:44;;;;;;;;;3.50;2.00;;;;;8.86;63.83;101614.06;5108375;27;45260;-64
2023/01/10 06:11:09;;;;;;;;;4.50;4.00;;;;;8.79;62.51;101606.59;5109126;27;45215;-65
2023/01/10 06:13:35;;;;;;;;;3.25;2.00;;;;;8.83;63.03;101616.59;5106354;27;45178;-66
2023/01/10 06:16:00;;;;;;;;;2.25;2.00;;;;;8.84;63.71;101613.06;5084021;27;45705;-65
2023/01/10 06:18:25;;;;;;;;;3.75;3.00;;;;;8.82;62.33;101614.75;5104794;27;45318;-65
2023/01/10 06:20:51;;;;;;;;;27.00;24.50;;;;;8.81;63.00;101605.84;5106850;27;45293;-65
2023/01/10 06:23:17;;;;;;;;;6.75;6.75;;;;;8.92;62.72;101608.09;5109782;27;45196;-65
2023/01/10 06:25:43;;;;;;;;;2.50;2.25;;;;;8.93;62.95;101610.84;5088675;27;45132;-65
2023/01/10 06:28:10;;;;;;;;;5.00;4.00;;;;;8.94;63.55;101598.41;5102513;27;45044;-65
2023/01/10 06:30:36;;;;;;;;;5.00;2.00;;;;;8.89;62.73;101589.28;5105910;27;45473;-66
2023/01/10 06:33:03;;;;;;;;;3.00;3.00;;;;;9.02;62.99;101605.94;5108581;27;45807;-64
2023/01/10 06:35:29;;;;;;;;;8.75;2.00;;;;;9.02;62.94;101613.00;5105500;27;45270;-66
2023/01/10 06:37:54;;;;;;;;;4.00;4.00;;;;;9.03;62.82;101604.19;5104274;27;45533;-65
2023/01/10 06:40:19;;;;;;;;;5.00;4.75;;;;;9.05;62.66;101607.81;5114321;27;45351;-65
2023/01/10 06:42:45;;;;;;;;;7.25;5.75;;;;;9.06;62.56;101608.72;5106600;27;45298;-64
2023/01/10 06:45:10;;;;;;;;;4.50;3.50;;;;;9.03;62.68;101601.53;5110331;27;45148;-65
2023/01/10 06:47:39;;;;;;;;;7.75;4.00;;;;;8.99;62.96;101612.88;5095119;27;44955;-67
2023/01/10 06:50:05;;;;;;;;;6.50;4.75;;;;;8.99;62.44;101620.84;5111092;27;45180;-65
2023/01/10 06:52:31;;;;;;;;;6.00;4.25;;;;;8.96;62.98;101632.31;5115500;27;45142;-68
2023/01/10 06:54:56;;;;;;;;;4.00;4.00;;;;;8.95;63.56;101627.81;5117235;27;44965;-65
2023/01/10 06:57:22;;;;;;;;;6.00;5.25;;;;;8.97;62.34;101625.22;5115141;27;44925;-66
2023/01/10 06:59:48;;;;;;;;;8.75;4.50;;;;;8.89;62.62;101634.59;5113409;27;45095;-65
2023/01/10 07:02:14;;;;;;;;;4.25;3.75;;;;;8.89;62.83;101627.50;5120721;27;45778;-66
2023/01/10 07:04:39;;;;;;;;;4.50;3.00;;;;;8.89;63.19;101624.84;5115054;27;45111;-66
2023/01/10 07:07:05;;;;;;;;;4.00;3.00;;;;;8.90;62.94;101626.69;5114777;27;45012;-66
2023/01/10 07:09:30;;;;;;;;;6.50;3.00;;;;;8.89;62.89;101635.50;5112336;27;45307;-65
2023/01/10 07:11:55;;;;;;;;;4.50;4.50;;;;;8.92;62.80;101630.31;5110211;27;46448;-67
2023/01/10 07:14:21;;;;;;;;;11.50;4.50;;;;;8.89;63.35;101621.28;5099580;27;45504;-66
2023/01/10 07:16:47;;;;;;;;;4.75;3.00;;;;;8.87;63.33;101621.19;5097089;27;45441;-66
2023/01/10 07:19:12;;;;;;;;;8.75;4.00;;;;;8.86;63.25;101616.72;5097130;27;45592;-64
2023/01/10 07:21:38;;;;;;;;;4.00;2.67;;;;;8.88;63.63;101617.72;5109968;27;46397;-65
2023/01/10 07:24:04;;;;;;;;;4.75;4.25;;;;;8.82;63.69;101612.09;5109016;27;45596;-65
2023/01/10 07:26:29;;;;;;;;;11.00;7.25;;;;;8.82;63.26;101612.97;5095634;27;45358;-66
2023/01/10 07:28:55;;;;;;;;;5.50;4.50;;;;;8.83;63.35;101609.50;5101541;27;45501;-67
2023/01/10 07:31:22;;;;;;;;;5.25;4.25;;;;;8.81;62.89;101604.91;5077685;27;52926;-65
2023/01/10 07:33:49;;;;;;;;;6.00;4.25;;;;;8.89;63.23;101619.50;5077061;27;45438;-66
2023/01/10 07:36:14;;;;;;;;;11.00;5.50;;;;;8.89;63.30;101608.84;5096732;27;45717;-66
2023/01/10 07:38:40;;;;;;;;;8.00;4.75;;;;;8.89;63.47;101613.28;5097413;27;45480;-66
2023/01/10 07:41:06;;;;;;;;;7.00;3.75;;;;;8.87;63.48;101607.88;5101160;27;49632;-64
2023/01/10 07:43:32;;;;;;;;;9.50;6.75;;;;;8.89;63.88;101608.84;5095664;27;45418;-66
2023/01/10 07:45:58;;;;;;;;;7.25;6.50;;;;;8.80;63.07;101589.78;5097354;27;45520;-66
2023/01/10 07:48:24;;;;;;;;;7.50;5.75;;;;;8.84;63.85;101600.66;5090688;27;45559;-66
2023/01/10 07:50:54;;;;;;;;;10.75;9.50;;;;;8.83;64.17;101609.50;5096166;27;46371;-66
2023/01/10 07:53:20;;;;;;;;;6.00;3.75;;;;;8.76;63.25;101602.06;5095905;27;45497;-66
2023/01/10 07:55:45;;;;;;;;;13.50;5.50;;;;;8.77;63.34;101609.19;5095991;27;45466;-67
2023/01/10 07:58:10;;;;;;;;;7.00;7.00;;;;;8.76;64.41;101607.38;5108587;27;45572;-68
2023/01/10 08:00:36;;;;;;;;;4.75;4.75;;;;;8.76;63.67;101611.78;5103901;27;45264;-67
2023/01/10 08:03:01;;;;;;;;;7.25;5.50;;;;;8.67;63.37;101596.28;5095634;27;45453;-66
2023/01/10 08:05:27;;;;;;;;;11.50;8.75;;;;;8.79;63.45;101609.25;5096313;27;45436;-66
2023/01/10 08:07:54;;;;;;;;;10.25;5.50;;;;;8.76;64.45;101604.72;5095877;27;45569;-66
2023/01/10 08:10:19;;;;;;;;;10.75;7.50;;;;;8.80;64.50;101609.34;5095997;27;45674;-67
2023/01/10 08:12:47;;;;;;;;;9.00;4.00;;;;;8.83;64.38;101619.25;5094438;27;45671;-65
2023/01/10 08:15:12;;;;;;;;;10.75;6.25;;;;;8.84;63.56;101613.06;5101314;27;45468;-67
2023/01/10 08:17:37;;;;;;;;;18.75;14.00;;;;;8.81;63.93;101607.56;5093986;27;45403;-66
2023/01/10 08:20:03;;;;;;;;;16.75;10.50;;;;;8.87;64.11;101610.53;5076460;27;51000;-64
2023/01/10 08:22:29;;;;;;;;;4.50;3.25;;;;;8.72;64.08;101581.41;5077288;27;45339;-67
2023/01/10 08:24:54;;;;;;;;;6.25;4.00;;;;;8.88;63.77;101612.38;5094172;27;45383;-67
2023/01/10 08:27:19;;;;;;;;;24.00;18.75;;;;;8.89;64.18;101613.28;5096731;27;45528;-66
2023/01/10 08:29:46;;;;;;;;;11.75;10.00;;;;;8.93;64.16;101615.25;5095543;27;45551;-66
2023/01/10 08:32:11;;;;;;;;;6.25;6.25;;;;;8.94;63.18;101615.34;5092227;27;45486;-67
2023/01/10 08:34:37;;;;;;;;;13.00;9.25;;;;;8.94;63.38;101609.06;5094527;27;45505;-67
2023/01/10 08:37:02;;;;;;;;;4.00;3.00;;;;;8.92;63.86;101593.00;5096201;27;45669;-66
2023/01/10 08:39:33;;;;;;;;;8.50;6.00;;;;;8.96;63.76;101599.38;5095516;27;46217;-67
2023/01/10 08:41:59;;;;;;;;;7.75;5.50;;;;;8.99;63.42;101603.13;5097167;27;45430;-66
2023/01/10 08:44:25;;;;;;;;;6.00;4.00;;;;;8.94;63.51;101603.75;5095918;27;45845;-67
2023/01/10 08:46:51;;;;;;;;;7.50;4.25;;;;;8.92;63.57;101616.09;5091620;27;45473;-65
2023/01/10 08:49:16;;;;;;;;;11.00;7.75;;;;;8.77;63.80;101574.56;5096134;27;46035;-65
2023/01/10 08:51:42;;;;;;;;;11.75;6.75;;;;;8.84;64.22;101600.66;5091343;27;45417;-66
2023/01/10 08:54:07;;;;;;;;;10.50;8.00;;;;;8.92;63.91;101608.09;5076969;27;45516;-66
2023/01/10 08:56:34;;;;;;;;;12.50;10.50;;;;;8.84;64.41;101607.72;5095218;27;45560;-66
2023/01/10 08:59:00;;;;;;;;;13.00;6.75;;;;;8.85;63.49;101614.91;5095132;27;46165;-67
2023/01/10 09:01:25;;;;;;;;;8.00;6.75;;;;;8.86;64.29;101632.72;5100700;27;45526;-67
2023/01/10 09:03:50;;;;;;;;;11.25;9.00;;;;;8.85;64.73;101626.44;5098059;27;45336;-67
2023/01/10 09:06:16;;;;;;;;;9.75;5.75;;;;;8.88;64.16;101624.81;5102550;27;45450;-64
2023/01/10 09:08:41;;;;;;;;;15.00;6.50;;;;;8.90;64.54;101617.78;5109237;27;46418;-65
2023/01/10 09:11:06;;;;;;;;;12.25;7.00;;;;;8.97;64.52;101614.56;5097863;27;45473;-65
2023/01/10 09:13:33;;;;;;;;;8.00;5.75;;;;;8.98;65.69;101605.72;5099122;27;45569;-67
2023/01/10 09:15:59;;;;;;;;;7.00;6.00;;;;;8.97;66.05;101618.13;5090423;27;45493;-66
2023/01/10 09:18:25;;;;;;;;;9.75;8.25;;;;;8.98;65.31;101600.41;5094928;27;45477;-66
2023/01/10 09:20:51;;;;;;;;;12.50;7.25;;;;;9.02;65.94;101599.69;5094750;27;45440;-66
2023/01/10 09:23:20;;;;;;;;;10.00;6.00;;;;;9.08;65.78;101607.97;5092603;27;45524;-67
2023/01/10 09:25:46;;;;;;;;;10.75;9.50;;;;;9.11;65.75;101599.22;5088062;27;45548;-66
2023/01/10 09:28:12;;;;;;;;;16.00;10.50;;;;;8.98;65.66;101565.75;5094261;27;47371;-66
2023/01/10 09:30:38;;;;;;;;;9.00;7.25;;;;;9.10;66.13;101586.72;5089950;27;45514;-66
2023/01/10 09:33:05;;;;;;;;;9.50;9.50;;;;;9.13;66.04;101579.78;5094568;27;45312;-68
2023/01/10 09:35:31;;;;;;;;;11.75;8.75;;;;;9.15;66.22;101596.75;5094711;27;45486;-65
2023/01/10 09:38:02;;;;;;;;;14.50;9.50;;;;;9.15;66.61;101585.16;5094222;27;45452;-67
2023/01/10 09:40:37;;;;;;;;;12.25;10.00;;;;;9.13;66.31;101579.78;5096745;27;45381;-66
2023/01/10 09:43:12;;;;;;;;;14.25;9.00;;;;;9.03;67.01;101565.09;5082645;27;45349;-66
2023/01/10 09:45:49;;;;;;;;;14.00;7.25;;;;;9.10;67.24;101568.97;5089828;27;45269;-66
2023/01/10 09:48:25;;;;;;;;;12.25;12.00;;;;;9.17;67.93;101578.16;5099569;27;46489;-66
2023/01/10 09:51:04;;;;;;;;;20.25;17.75;;;;;9.14;67.90;101564.69;5104885;27;45648;-66
2023/01/10 09:53:33;;;;;;;;;11.75;6.00;;;;;9.12;67.71;101564.59;5095467;27;45572;-66
2023/01/10 09:56:00;;;;;;;;;12.50;7.25;;;;;8.73;67.53;101489.06;5094635;27;45259;-67
2023/01/10 09:58:30;;;;;;;;;9.00;5.25;;;;;9.14;67.97;101572.66;5093503;27;45412;-65
2023/01/10 10:01:05;;;;;;;;;11.00;7.25;;;;;9.13;68.67;101566.44;5075138;27;45434;-66
2023/01/10 10:03:44;;;;;;;;;12.50;10.25;;;;;9.15;68.62;101577.16;5103758;27;45585;-64
2023/01/10 10:06:12;;;;;;;;;8.50;6.25;;;;;9.10;68.94;101576.06;5087952;27;45409;-65
2023/01/10 10:08:39;;;;;;;;;6.00;6.00;;;;;9.11;69.29;101584.13;5093958;27;46333;-65
2023/01/10 10:11:25;;;;;;;;;18.75;6.75;;;;;9.14;68.28;101581.59;5103345;27;45357;-67
2023/01/10 10:14:16;;;;;;;;;7.00;7.00;;;;;9.13;68.95;101571.78;5094316;27;45304;-65
2023/01/10 10:16:50;;;;;;;;;14.50;9.25;;;;;9.14;69.47;101575.34;5087604;27;45509;-64
2023/01/10 10:19:27;;;;;;;;;8.75;7.00;;;;;9.18;68.89;101579.97;5085917;27;46214;-65
2023/01/10 10:22:07;;;;;;;;;13.75;8.00;;;;;9.18;68.99;101577.31;5094074;27;45435;-67
2023/01/10 10:24:41;;;;;;;;;11.50;9.00;;;;;9.20;69.88;101568.53;5094178;27;45578;-66
2023/01/10 10:27:19;;;;;;;;;6.50;6.50;;;;;9.20;69.15;101568.53;5092828;27;45693;-66
2023/01/10 10:30:23;;;;;;;;;10.25;9.00;;;;;9.20;69.47;101556.97;5096559;27;45385;-65
2023/01/10 10:33:14;;;;;;;;;12.75;11.00;;;;;9.20;69.21;101546.28;5094323;27;45360;-68
2023/01/10 10:35:44;;;;;;;;;17.25;12.75;;;;;9.23;69.59;101541.09;5095685;27;45362;-66
2023/01/10 10:38:16;;;;;;;;;10.75;7.25;;;;;9.23;69.19;101530.44;5105296;27;45396;-66
2023/01/10 10:40:43;;;;;;;;;12.25;9.75;;;;;9.22;70.40;101526.88;5093665;27;45557;-66
2023/01/10 10:43:20;;;;;;;;;10.25;7.25;;;;;9.26;69.73;101516.34;5094781;27;45500;-66
2023/01/10 10:46:08;;;;;;;;;15.50;15.50;;;;;9.20;70.13;101493.88;5096145;27;45336;-66
2023/01/10 10:49:03;;;;;;;;;10.00;10.00;;;;;9.19;69.97;101470.75;5100321;27;45536;-65
2023/01/10 10:51:51;;;;;;;;;6.75;5.50;;;;;9.31;70.42;101498.78;5084041;27;45542;-66
2023/01/10 10:54:17;;;;;;;;;11.00;6.00;;;;;9.33;70.13;101490.00;5090632;27;45525;-67
2023/01/10 10:56:44;;;;;;;;;14.50;11.00;;;;;9.28;70.53;101470.22;5093332;27;45486;-67
2023/01/10 10:59:16;;;;;;;;;10.00;5.75;;;;;9.38;70.27;101474.19;5067068;27;45399;-68
2023/01/10 11:01:46;;;;;;;;;8.25;5.00;;;;;9.27;69.51;101455.06;5096925;27;45703;-65
2023/01/10 11:04:16;;;;;;;;;6.25;5.00;;;;;9.35;69.89;101480.28;5098400;27;45363;-68
2023/01/10 11:06:47;;;;;;;;;7.75;6.00;;;;;9.36;69.82;101478.56;5078734;27;45662;-67
2023/01/10 11:09:23;;;;;;;;;9.00;7.33;;;;;9.39;69.58;101465.38;5101973;27;45571;-67
2023/01/10 11:11:51;;;;;;;;;6.50;4.75;;;;;9.45;69.29;101470.03;5081032;27;48230;-67
2023/01/10 11:14:55;;;;;;;;;6.25;6.25;;;;;9.35;69.47;101466.97;5076577;27;45405;-65
2023/01/10 11:17:26;;;;;;;;;10.00;5.25;;;;;9.35;70.25;101455.41;5075943;27;45460;-67
2023/01/10 11:19:58;;;;;;;;;13.00;8.25;;;;;9.34;70.59;101440.25;5076157;27;45729;-66
2023/01/10 11:22:26;;;;;;;;;6.50;5.25;;;;;9.33;70.14;101443.75;5076314;27;46001;-66
2023/01/10 11:24:58;;;;;;;;;11.75;7.00;;;;;9.34;70.76;101430.50;5079834;27;45430;-67
2023/01/10 11:27:51;;;;;;;;;9.25;4.25;;;;;9.33;70.79;101435.75;5072870;27;45481;-65
2023/01/10 11:30:29;;;;;;;;;7.25;5.25;;;;;9.27;70.11;101423.06;5069829;27;45483;-67
2023/01/10 11:33:04;;;;;;;;;6.00;6.00;;;;;9.27;70.77;101414.16;5052636;28;47003;-67
2023/01/10 11:35:37;;;;;;;;;10.75;8.75;;;;;9.13;71.05;101406.50;5072298;27;45478;-67
2023/01/10 11:38:16;;;;;;;;;11.25;6.00;;;;;9.25;71.91;101418.53;5080166;27;45415;-67
2023/01/10 11:40:52;;;;;;;;;10.00;7.25;;;;;9.23;71.38;101392.69;5077572;27;45625;-68
2023/01/10 11:43:34;;;;;;;;;7.75;6.00;;;;;9.23;72.22;101400.69;5074602;27;46345;-67
2023/01/10 11:46:21;;;;;;;;;10.25;9.00;;;;;9.25;72.54;101399.84;5068164;27;45482;-66
2023/01/10 11:48:49;;;;;;;;;5.50;5.50;;;;;9.29;71.93;101389.41;5069949;27;45373;-66